Flight Track Log - Related Links

Times and Time Zones

All times are in EDT time to prevent confusion due to time zone crossing. See the UAL1432 flight status page for this flight to view local times or setup timezone preferences in your user account.

Time Position Orientation Groundspeed Altitude Reporting Facility
EDT Latitude Longitude Course Direction KTS MPH feet Rate Location/Type
Sun 10:17:36 AM 29.9547 -95.3347 135° Southeast 169 194 1,000  Level Houston Center
Sun 10:18:07 AM 29.9358 -95.3131 135° Southeast 195 224 1,700 1,832 Climbing Houston Center
Sun 10:19:11 AM 29.8919 -95.2594 133° Southeast 232 267 3,900 2,262 Climbing Houston Center
Sun 10:20:09 AM 29.8322 -95.1931 136° Southeast 297 342 6,300 2,293 Climbing Houston Center
Sun 10:21:14 AM 29.7589 -95.1558 156° South 321 369 8,600 2,311 Climbing Houston Center
Sun 10:22:11 AM 29.6553 -95.1425 174° South 354 407 11,000 2,146 Climbing Houston Center
Sun 10:23:17 AM 29.5444 -95.1203 170° South 403 464 13,000 2,016 Climbing Houston Center
Sun 10:24:19 AM 29.4556 -95.0458 144° Southeast 399 459 15,300 2,195 Climbing Houston Center
Sun 10:25:20 AM 29.3642 -94.9597 141° Southeast 421 484 17,500 2,390 Climbing Houston Center
Sun 10:26:22 AM 29.2744 -94.8739 140° Southeast 422 486 20,200 2,098 Climbing Houston Center
Sun 10:27:23 AM 29.1508 -94.7881 149° Southeast 435 501 21,800 1,366 Climbing Houston Center
Sun 10:28:25 AM 29.0414 -94.7136 149° Southeast 453 521 23,000 878 Climbing Houston Center
Sun 10:29:26 AM 28.9325 -94.6392 149° Southeast 456 525 23,600 1,171 Climbing Houston Center
Sun 10:30:28 AM 28.8225 -94.5656 150° Southeast 456 525 25,400 1,452 Climbing Houston Center
Sun 10:31:30 AM 28.7103 -94.4894 149° Southeast 465 535 26,600 1,122 Climbing Houston Center
Sun 10:32:31 AM 28.5947 -94.4119 150° Southeast 479 551 27,700 1,024 Climbing Houston Center
Sun 10:33:33 AM 28.4747 -94.3317 150° Southeast 496 571 28,700 1,024 Climbing Houston Center
Sun 10:34:34 AM 28.3536 -94.2522 150° Southeast 503 579 29,800 1,171 Climbing Houston Center
Sun 10:35:36 AM 28.2064 -94.1531 149° Southeast 511 588 31,100 1,113 Climbing Houston Center
Sun 10:36:38 AM 28.0919 -94.0569 143° Southeast 512 589 32,100 927 Climbing Houston Center
Sun 10:37:39 AM 27.9833 -93.9497 139° Southeast 517 595 33,000 439 Climbing Houston Center
Sun 10:38:41 AM 27.8725 -93.8453 140° Southeast 519 597 33,000  Level Houston Center
Sun 10:39:43 AM 27.7631 -93.7403 140° Southeast 517 595 33,000  Level Houston Center
Sun 10:40:44 AM 27.6528 -93.6394 141° Southeast 512 589 33,000  Level Houston Center
Sun 10:41:46 AM 27.5447 -93.5358 140° Southeast 509 586 33,000  Level Houston Center
Sun 10:42:47 AM 27.4150 -93.4114 140° Southeast 510 587 33,000  Level Houston Center
Sun 10:43:49 AM 27.3069 -93.3092 140° Southeast 510 587 33,000  Level Houston Center
Sun 10:44:51 AM 27.1994 -93.2092 140° Southeast 505 581 33,000  Level Houston Center
Sun 10:45:52 AM 27.0967 -93.1119 140° Southeast 504 580 33,000  Level Houston Center
Sun 10:46:54 AM 26.9892 -93.0136 141° Southeast 502 578 33,000 -48 Level Houston Center
Sun 10:47:56 AM 26.8833 -92.9144 140° Southeast 499 574 32,900 -49 Descending Houston Center
Sun 10:48:57 AM 26.7531 -92.8006 142° Southeast 497 572 32,900  Level Houston Center
Sun 10:50:00 AM 26.6390 -92.7255 150° Southeast  Level FlightAware Approximate
Sun 10:57:00 AM 25.8776 -92.2286 150° Southeast  Level FlightAware Approximate
Sun 10:58:00 AM 25.7690 -92.1576 149° Southeast  Level FlightAware Approximate
Sun 10:59:00 AM 25.6605 -92.0864 149° Southeast  Level FlightAware Approximate
Sun 11:00:00 AM 25.5520 -92.0153 149° Southeast  Level FlightAware Approximate
Sun 11:01:00 AM 25.4435 -91.9443 149° Southeast  Level FlightAware Approximate
Sun 11:02:00 AM 25.3349 -91.8734 149° Southeast  Level FlightAware Approximate
Sun 11:03:00 AM 25.2264 -91.8027 149° Southeast  Level FlightAware Approximate
Sun 11:04:00 AM 25.1177 -91.7321 150° Southeast  Level FlightAware Approximate
Sun 11:05:00 AM 25.0091 -91.6616 150° Southeast  Level FlightAware Approximate
Sun 11:06:00 AM 24.9004 -91.5912 150° Southeast  Level FlightAware Approximate
Sun 11:07:00 AM 24.7916 -91.5210 150° Southeast  Level FlightAware Approximate
Sun 11:08:00 AM 24.6829 -91.4509 150° Southeast  Level FlightAware Approximate
Sun 11:09:00 AM 24.5741 -91.3809 150° Southeast  Level FlightAware Approximate
Sun 11:10:00 AM 24.4632 -91.3155 156° South  Level FlightAware Approximate
Sun 11:11:00 AM 24.3479 -91.2595 156° South  Level FlightAware Approximate
Sun 11:12:00 AM 24.2326 -91.2037 156° South  Level FlightAware Approximate
Sun 11:13:00 AM 24.1173 -91.1480 156° South  Level FlightAware Approximate
Sun 11:14:00 AM 24.0020 -91.0924 156° South  Level FlightAware Approximate
Sun 11:15:00 AM 23.8866 -91.0369 156° South  Level FlightAware Approximate
Sun 11:16:00 AM 23.7712 -90.9814 156° South  Level FlightAware Approximate
Sun 11:17:00 AM 23.6558 -90.9261 156° South  Level FlightAware Approximate
Sun 11:18:00 AM 23.5404 -90.8709 156° South  Level FlightAware Approximate
Sun 11:19:00 AM 23.4250 -90.8158 156° South  Level FlightAware Approximate
Sun 11:20:00 AM 23.3095 -90.7607 156° South  Level FlightAware Approximate
Sun 11:21:00 AM 23.1940 -90.7058 156° South  Level FlightAware Approximate
Sun 11:22:00 AM 23.0785 -90.6509 156° South  Level FlightAware Approximate
Sun 11:23:00 AM 22.9630 -90.5962 156° South  Level FlightAware Approximate
Sun 11:24:00 AM 22.8475 -90.5415 156° South  Level FlightAware Approximate
Sun 11:25:00 AM 22.7319 -90.4870 156° South  Level FlightAware Approximate
Sun 11:26:00 AM 22.6164 -90.4325 156° South  Level FlightAware Approximate
Sun 11:27:00 AM 22.5008 -90.3781 157° South  Level FlightAware Approximate
Sun 11:28:00 AM 22.3852 -90.3239 157° South  Level FlightAware Approximate
Sun 11:29:00 AM 22.2695 -90.2697 157° South  Level FlightAware Approximate
Sun 11:30:00 AM 22.1539 -90.2155 157° South  Level FlightAware Approximate
Sun 11:31:00 AM 22.0382 -90.1615 157° South  Level FlightAware Approximate
Sun 11:32:00 AM 21.9226 -90.1076 157° South  Level FlightAware Approximate
Sun 11:33:00 AM 21.8069 -90.0537 157° South  Level FlightAware Approximate
Sun 11:34:00 AM 21.6911 -90.0000 157° South  Level FlightAware Approximate
Sun 11:35:00 AM 21.5754 -89.9463 157° South  Level FlightAware Approximate
Sun 11:36:00 AM 21.4597 -89.8927 157° South  Level FlightAware Approximate
Sun 11:37:00 AM 21.3439 -89.8392 157° South  Level FlightAware Approximate
Sun 11:38:00 AM 21.2282 -89.7857 157° South  Level FlightAware Approximate
Sun 11:39:00 AM 21.1124 -89.7323 157° South  Level FlightAware Approximate
Sun 11:40:00 AM 20.9966 -89.6791 157° South  Level FlightAware Approximate
Sun 11:41:00 AM 20.8801 -89.6275 158° South  Level FlightAware Approximate
Sun 11:42:00 AM 20.7628 -89.5781 158° South  Level FlightAware Approximate
Sun 11:43:00 AM 20.6456 -89.5288 159° South  Level FlightAware Approximate
Sun 11:44:00 AM 20.5269 -89.4835 161° South  Level FlightAware Approximate
Sun 11:45:00 AM 20.4078 -89.4397 161° South  Level FlightAware Approximate
Sun 11:46:00 AM 20.2887 -89.3954 159° South  Level FlightAware Approximate
Sun 11:47:00 AM 20.1709 -89.3477 159° South  Level FlightAware Approximate
Sun 11:48:00 AM 20.0531 -89.3001 159° South  Level FlightAware Approximate
Sun 11:49:00 AM 19.9353 -89.2526 159° South  Level FlightAware Approximate
Sun 11:50:00 AM 19.8174 -89.2051 159° South  Level FlightAware Approximate
Sun 11:51:00 AM 19.6995 -89.1577 159° South  Level FlightAware Approximate
Sun 11:52:00 AM 19.5817 -89.1104 159° South  Level FlightAware Approximate
Sun 11:53:00 AM 19.4638 -89.0631 159° South  Level FlightAware Approximate
Sun 11:54:00 AM 19.3459 -89.0159 159° South  Level FlightAware Approximate
Sun 11:55:00 AM 19.2279 -88.9688 159° South  Level FlightAware Approximate
Sun 11:56:00 AM 19.1100 -88.9218 159° South  Level FlightAware Approximate
Sun 11:57:00 AM 18.9921 -88.8748 159° South  Level FlightAware Approximate
Sun 11:58:00 AM 18.8741 -88.8278 159° South  Level FlightAware Approximate
Sun 11:59:00 AM 18.7562 -88.7810 159° South  Level FlightAware Approximate
Sun 12:00:00 PM 18.6382 -88.7342 159° South  Level FlightAware Approximate
Sun 12:01:00 PM 18.5202 -88.6874 159° South  Level FlightAware Approximate
Sun 12:02:00 PM 18.4022 -88.6408 159° South  Level FlightAware Approximate
Sun 12:03:00 PM 18.2831 -88.5975 161° South  Level FlightAware Approximate
Sun 12:04:00 PM 18.1637 -88.5548 161° South  Level FlightAware Approximate
Sun 12:05:00 PM 18.0444 -88.5122 161° South  Level FlightAware Approximate
Sun 12:06:00 PM 17.9250 -88.4697 161° South  Level FlightAware Approximate
Sun 12:07:00 PM 17.8084 -88.4195 157° South  Level FlightAware Approximate
Sun 12:08:00 PM 17.6920 -88.3689 157° South  Level FlightAware Approximate
Sun 12:09:00 PM 17.5755 -88.3183 158° South  Level FlightAware Approximate
Sun 12:10:00 PM 17.4544 -88.2842 169° South  Level FlightAware Approximate
Sun 12:11:00 PM 17.3306 -88.2594 169° South  Level FlightAware Approximate
Sun 12:12:00 PM 17.2068 -88.2347 169° South  Level FlightAware Approximate
Sun 12:13:00 PM 17.0830 -88.2104 170° South  Level FlightAware Approximate
Sun 12:14:00 PM 16.9588 -88.1876 170° South  Level FlightAware Approximate
Sun 12:15:00 PM 16.8347 -88.1648 170° South  Level FlightAware Approximate
Sun 12:16:00 PM 16.7106 -88.1420 170° South  Level FlightAware Approximate
Sun 12:17:00 PM 16.5865 -88.1192 170° South  Level FlightAware Approximate
Sun 12:18:00 PM 16.4631 -88.0966 170° South  Level FlightAware Approximate
Sun 12:19:00 PM 16.3398 -88.0741 170° South  Level FlightAware Approximate
Sun 12:20:00 PM 16.2164 -88.0515 170° South  Level FlightAware Approximate
Sun 12:21:00 PM 16.0931 -88.0285 169° South  Level FlightAware Approximate
Sun 12:22:00 PM 15.9703 -88.0032 169° South  Level FlightAware Approximate
Sun 12:23:00 PM 15.8474 -87.9780 169° South  Level FlightAware Approximate
Sun 12:24:00 PM 15.7245 -87.9528 169° South  Level FlightAware Approximate
Sun 12:25:00 PM 15.6017 -87.9276 169° South  Level FlightAware Approximate
Sun 12:26:00 PM 15.4788 -87.9025 169° South  Level FlightAware Approximate
Sun 12:27:00 PM 15.3650 -87.8491 154° Southeast  Level FlightAware Approximate
Sun 12:28:00 PM 15.2512 -87.7949 157° South  Level FlightAware Approximate
Sun 12:29:00 PM 15.1361 -87.7437 157° South  Level FlightAware Approximate
Sun 12:30:00 PM 15.0210 -87.6926 157° South  Level FlightAware Approximate
Sun 12:31:00 PM 14.9059 -87.6415 157° South  Level FlightAware Approximate
Sun 12:32:00 PM 14.7917 -87.5885 155° Southeast  Level FlightAware Approximate
Sun 12:33:00 PM 14.6782 -87.5338 155° Southeast  Level FlightAware Approximate
Sun 12:34:00 PM 14.5646 -87.4791 155° Southeast  Level FlightAware Approximate
Sun 12:35:00 PM 14.4511 -87.4246 155° Southeast  Level FlightAware Approximate
Sun 12:36:00 PM 14.3375 -87.3701 155° Southeast  Level FlightAware Approximate
Sun 12:37:00 PM 14.2239 -87.3157 155° Southeast  Level FlightAware Approximate
Sun 12:38:00 PM 14.1103 -87.2614 155° Southeast  Level FlightAware Approximate
Sun 12:39:00 PM 13.9947 -87.2194 187° South  Level FlightAware Approximate
Sun 12:40:00 PM 13.8704 -87.2350 187° South  Level FlightAware Approximate
Sun 12:41:00 PM 13.7461 -87.2500 180° South  Level FlightAware Approximate
Sun 12:42:00 PM 13.6221 -87.2611 194° South  Level FlightAware Approximate
Sun 12:43:00 PM 13.5255 -87.1944 145° Southeast  Level FlightAware Approximate
Sun 12:44:00 PM 13.4227 -87.1209 145° Southeast  Level FlightAware Approximate
Sun 12:45:00 PM 13.3198 -87.0475 145° Southeast  Level FlightAware Approximate
Sun 12:46:00 PM 13.2170 -86.9740 145° Southeast  Level FlightAware Approximate
Sun 12:47:00 PM 13.1164 -86.8974 143° Southeast  Level FlightAware Approximate
Sun 12:48:00 PM 13.0170 -86.8193 143° Southeast  Level FlightAware Approximate
Sun 12:49:00 PM 12.9166 -86.7424 145° Southeast  Level FlightAware Approximate
Sun 12:50:00 PM 12.8145 -86.6681 145° Southeast  Level FlightAware Approximate
Sun 12:51:00 PM 12.7129 -86.5930 144° Southeast  Level FlightAware Approximate
Sun 12:52:00 PM 12.6116 -86.5175 145° Southeast  Level FlightAware Approximate
Sun 12:53:00 PM 12.5095 -86.4432 145° Southeast  Level FlightAware Approximate
Sun 12:54:00 PM 12.4078 -86.3683 144° Southeast  Level FlightAware Approximate
Sun 12:55:00 PM 12.3079 -86.2912 136° Southeast  Level FlightAware Approximate
Sun 12:56:00 PM 12.2066 -86.2175 144° Southeast  Level FlightAware Approximate
Sun 12:57:00 PM 12.1500 -86.1500 44° Northeast  Level FlightAware Approximate
Sun 12:58:00 PM 12.1415 -86.1682 44° Northeast  Level Estimated
Sun 12:59:00 PM 12.1415 -86.1682 44° Northeast  Level Estimated
Sun 01:00:00 PM 12.1415 -86.1682 44° Northeast  Level Estimated
Sun 01:01:00 PM 12.1415 -86.1682 44° Northeast  Level Estimated

Login

Don't have an account? Register now (free) for customized features, flight alerts, and more!